Terminal Aerodrome Forecast
Issued by NWS Wilmington, OH

Current Version | Previous Version | Text Only | Print | Product List | Glossary Off
Versions: 1 2 3 4 5 6 7 8 9 10 11 12 13 14 15 16 17 18 19 20 21 22 23 24 25 26 27

427
FTUS41 KILN 221135
TAFILN
TAF
KILN 221135Z 2212/2312 21008KT P6SM SCT110 BKN250
     FM221500 21012KT P6SM OVC250
     FM222200 20012G20KT P6SM VCSH SCT050 OVC250
     FM230100 18012KT 6SM -SHRA BR OVC030
     FM230300 19012KT 5SM -SHRA BR OVC017
     FM230600 20012KT P6SM OVC014
     FM231000 21012KT 5SM SHRA BR OVC010=

USA.gov is the U.S. government's official web portal to all federal, state and local government web resources and services.